sensor_id;sensor_type;location;lat;lon;timestamp;temperature;humidity
18337;DHT22;9294;51.106;7.028;2023-02-21T00:01:16;19.20;91.70
18337;DHT22;9294;51.106;7.028;2023-02-21T00:04:00;19.20;91.70
18337;DHT22;9294;51.106;7.028;2023-02-21T00:06:46;19.20;91.70
18337;DHT22;9294;51.106;7.028;2023-02-21T00:09:30;19.20;91.70
18337;DHT22;9294;51.106;7.028;2023-02-21T00:12:14;19.20;91.60
18337;DHT22;9294;51.106;7.028;2023-02-21T00:14:58;19.30;91.70
18337;DHT22;9294;51.106;7.028;2023-02-21T00:17:42;19.20;91.60
18337;DHT22;9294;51.106;7.028;2023-02-21T00:20:26;19.20;91.60
18337;DHT22;9294;51.106;7.028;2023-02-21T00:23:12;19.20;91.60
18337;DHT22;9294;51.106;7.028;2023-02-21T00:25:56;19.20;91.60
18337;DHT22;9294;51.106;7.028;2023-02-21T00:28:42;19.20;91.60
18337;DHT22;9294;51.106;7.028;2023-02-21T00:31:26;19.20;91.60
18337;DHT22;9294;51.106;7.028;2023-02-21T00:34:11;19.20;91.60
18337;DHT22;9294;51.106;7.028;2023-02-21T00:36:55;19.20;91.60
18337;DHT22;9294;51.106;7.028;2023-02-21T00:39:40;19.20;91.50
18337;DHT22;9294;51.106;7.028;2023-02-21T00:42:24;19.20;91.50
18337;DHT22;9294;51.106;7.028;2023-02-21T00:45:09;19.10;91.50
18337;DHT22;9294;51.106;7.028;2023-02-21T00:47:54;19.10;91.50
18337;DHT22;9294;51.106;7.028;2023-02-21T00:50:38;19.10;91.50
18337;DHT22;9294;51.106;7.028;2023-02-21T00:53:23;19.10;91.50
18337;DHT22;9294;51.106;7.028;2023-02-21T00:56:08;19.10;91.50
18337;DHT22;9294;51.106;7.028;2023-02-21T00:58:52;19.10;91.50
18337;DHT22;9294;51.106;7.028;2023-02-21T01:01:37;19.10;91.40
18337;DHT22;9294;51.106;7.028;2023-02-21T01:04:21;19.10;91.40
18337;DHT22;9294;51.106;7.028;2023-02-21T01:07:05;19.10;91.40
18337;DHT22;9294;51.106;7.028;2023-02-21T01:09:49;19.10;91.40
18337;DHT22;9294;51.106;7.028;2023-02-21T01:12:34;19.10;91.40
18337;DHT22;9294;51.106;7.028;2023-02-21T01:15:18;19.10;91.40
18337;DHT22;9294;51.106;7.028;2023-02-21T01:18:03;19.10;91.40
18337;DHT22;9294;51.106;7.028;2023-02-21T01:20:47;19.10;91.40
18337;DHT22;9294;51.106;7.028;2023-02-21T01:23:31;19.00;91.40
18337;DHT22;9294;51.106;7.028;2023-02-21T01:26:15;19.10;91.40
18337;DHT22;9294;51.106;7.028;2023-02-21T01:29:01;19.00;91.40
18337;DHT22;9294;51.106;7.028;2023-02-21T01:31:45;19.00;91.30
18337;DHT22;9294;51.106;7.028;2023-02-21T01:34:29;19.00;91.30
18337;DHT22;9294;51.106;7.028;2023-02-21T01:37:13;19.10;91.30
18337;DHT22;9294;51.106;7.028;2023-02-21T01:39:57;19.00;91.30
18337;DHT22;9294;51.106;7.028;2023-02-21T01:42:42;19.00;91.40
18337;DHT22;9294;51.106;7.028;2023-02-21T01:45:49;19.00;91.30
18337;DHT22;9294;51.106;7.028;2023-02-21T01:48:34;19.00;91.30
18337;DHT22;9294;51.106;7.028;2023-02-21T01:51:23;19.00;91.30
18337;DHT22;9294;51.106;7.028;2023-02-21T01:54:08;19.00;91.30
18337;DHT22;9294;51.106;7.028;2023-02-21T01:56:54;19.00;91.30
18337;DHT22;9294;51.106;7.028;2023-02-21T01:59:39;19.00;91.30
18337;DHT22;9294;51.106;7.028;2023-02-21T02:02:28;19.00;91.30
18337;DHT22;9294;51.106;7.028;2023-02-21T02:05:15;19.00;91.30
18337;DHT22;9294;51.106;7.028;2023-02-21T02:08:00;18.90;91.30
18337;DHT22;9294;51.106;7.028;2023-02-21T02:10:45;18.90;91.30
18337;DHT22;9294;51.106;7.028;2023-02-21T02:13:47;18.90;91.30
18337;DHT22;9294;51.106;7.028;2023-02-21T02:16:25;18.90;91.20
18337;DHT22;9294;51.106;7.028;2023-02-21T02:19:12;18.90;91.30
18337;DHT22;9294;51.106;7.028;2023-02-21T02:22:15;18.90;91.20
18337;DHT22;9294;51.106;7.028;2023-02-21T02:24:59;18.90;91.20
18337;DHT22;9294;51.106;7.028;2023-02-21T02:27:45;18.90;91.20
18337;DHT22;9294;51.106;7.028;2023-02-21T02:30:55;18.90;91.20
18337;DHT22;9294;51.106;7.028;2023-02-21T02:33:46;18.90;91.20
18337;DHT22;9294;51.106;7.028;2023-02-21T02:36:20;18.90;91.20
18337;DHT22;9294;51.106;7.028;2023-02-21T02:38:54;19.00;91.30
18337;DHT22;9294;51.106;7.028;2023-02-21T02:41:28;18.90;91.20
18337;DHT22;9294;51.106;7.028;2023-02-21T02:44:03;18.90;91.20
18337;DHT22;9294;51.106;7.028;2023-02-21T02:46:31;18.80;91.20
18337;DHT22;9294;51.106;7.028;2023-02-21T02:49:02;18.80;91.20
18337;DHT22;9294;51.106;7.028;2023-02-21T02:51:33;18.90;91.20
18337;DHT22;9294;51.106;7.028;2023-02-21T02:54:00;18.80;91.20
18337;DHT22;9294;51.106;7.028;2023-02-21T02:56:27;18.80;91.20
18337;DHT22;9294;51.106;7.028;2023-02-21T02:58:57;18.80;91.20
18337;DHT22;9294;51.106;7.028;2023-02-21T03:01:45;18.80;91.20
18337;DHT22;9294;51.106;7.028;2023-02-21T03:04:36;18.80;91.40
18337;DHT22;9294;51.106;7.028;2023-02-21T03:07:16;18.80;91.10
18337;DHT22;9294;51.106;7.028;2023-02-21T03:09:52;18.80;91.20
18337;DHT22;9294;51.106;7.028;2023-02-21T03:12:27;18.80;91.20
18337;DHT22;9294;51.106;7.028;2023-02-21T03:15:02;18.80;91.10
18337;DHT22;9294;51.106;7.028;2023-02-21T03:17:32;18.80;91.10
18337;DHT22;9294;51.106;7.028;2023-02-21T03:20:04;18.80;91.10
18337;DHT22;9294;51.106;7.028;2023-02-21T03:22:34;18.80;91.10
18337;DHT22;9294;51.106;7.028;2023-02-21T03:25:02;18.80;91.20
18337;DHT22;9294;51.106;7.028;2023-02-21T03:27:30;18.80;91.10
18337;DHT22;9294;51.106;7.028;2023-02-21T03:29:59;18.80;91.10
18337;DHT22;9294;51.106;7.028;2023-02-21T03:32:31;18.80;91.10
18337;DHT22;9294;51.106;7.028;2023-02-21T03:34:58;18.80;91.10
18337;DHT22;9294;51.106;7.028;2023-02-21T03:37:30;18.80;91.10
18337;DHT22;9294;51.106;7.028;2023-02-21T03:39:59;18.80;91.10
18337;DHT22;9294;51.106;7.028;2023-02-21T03:42:25;18.80;91.10
18337;DHT22;9294;51.106;7.028;2023-02-21T03:44:52;18.80;91.10
18337;DHT22;9294;51.106;7.028;2023-02-21T03:47:19;18.80;91.10
18337;DHT22;9294;51.106;7.028;2023-02-21T03:49:46;18.70;91.00
18337;DHT22;9294;51.106;7.028;2023-02-21T03:52:13;18.70;91.00
18337;DHT22;9294;51.106;7.028;2023-02-21T03:54:40;18.70;91.00
18337;DHT22;9294;51.106;7.028;2023-02-21T03:57:08;18.70;91.00
18337;DHT22;9294;51.106;7.028;2023-02-21T03:59:35;18.70;91.00
18337;DHT22;9294;51.106;7.028;2023-02-21T04:02:02;18.70;91.00
18337;DHT22;9294;51.106;7.028;2023-02-21T04:04:28;18.70;91.00
18337;DHT22;9294;51.106;7.028;2023-02-21T04:06:55;18.70;91.00
18337;DHT22;9294;51.106;7.028;2023-02-21T04:09:22;18.70;91.00
18337;DHT22;9294;51.106;7.028;2023-02-21T04:11:51;18.70;91.00
18337;DHT22;9294;51.106;7.028;2023-02-21T04:14:19;18.70;91.00
18337;DHT22;9294;51.106;7.028;2023-02-21T04:16:46;18.70;91.30
18337;DHT22;9294;51.106;7.028;2023-02-21T04:19:12;18.70;91.00
18337;DHT22;9294;51.106;7.028;2023-02-21T04:21:39;18.70;91.00
18337;DHT22;9294;51.106;7.028;2023-02-21T04:24:06;18.70;91.00
18337;DHT22;9294;51.106;7.028;2023-02-21T04:26:33;18.70;91.00
18337;DHT22;9294;51.106;7.028;2023-02-21T04:29:00;18.70;91.00
18337;DHT22;9294;51.106;7.028;2023-02-21T04:31:28;18.70;91.00
18337;DHT22;9294;51.106;7.028;2023-02-21T04:33:55;18.70;91.00
18337;DHT22;9294;51.106;7.028;2023-02-21T04:36:21;18.70;91.00
18337;DHT22;9294;51.106;7.028;2023-02-21T04:38:48;18.70;91.00
18337;DHT22;9294;51.106;7.028;2023-02-21T04:41:15;18.70;91.20
18337;DHT22;9294;51.106;7.028;2023-02-21T04:43:43;18.60;91.00
18337;DHT22;9294;51.106;7.028;2023-02-21T04:46:10;18.60;91.00
18337;DHT22;9294;51.106;7.028;2023-02-21T04:48:41;18.60;91.00
18337;DHT22;9294;51.106;7.028;2023-02-21T04:51:09;18.60;91.00
18337;DHT22;9294;51.106;7.028;2023-02-21T04:53:35;18.70;91.00
18337;DHT22;9294;51.106;7.028;2023-02-21T04:56:03;18.60;90.90
18337;DHT22;9294;51.106;7.028;2023-02-21T04:58:30;18.60;91.00
18337;DHT22;9294;51.106;7.028;2023-02-21T05:00:56;18.60;90.90
18337;DHT22;9294;51.106;7.028;2023-02-21T05:03:23;18.60;90.90
18337;DHT22;9294;51.106;7.028;2023-02-21T05:05:51;18.60;90.90
18337;DHT22;9294;51.106;7.028;2023-02-21T05:08:18;18.60;90.90
18337;DHT22;9294;51.106;7.028;2023-02-21T05:10:45;18.60;90.90
18337;DHT22;9294;51.106;7.028;2023-02-21T05:13:12;18.60;90.90
18337;DHT22;9294;51.106;7.028;2023-02-21T05:15:39;18.60;91.00
18337;DHT22;9294;51.106;7.028;2023-02-21T05:18:06;18.60;91.00
18337;DHT22;9294;51.106;7.028;2023-02-21T05:20:32;18.60;91.00
18337;DHT22;9294;51.106;7.028;2023-02-21T05:23:00;18.60;91.00
18337;DHT22;9294;51.106;7.028;2023-02-21T05:25:27;18.60;91.00
18337;DHT22;9294;51.106;7.028;2023-02-21T05:27:54;18.60;91.00
18337;DHT22;9294;51.106;7.028;2023-02-21T05:30:21;18.60;91.00
18337;DHT22;9294;51.106;7.028;2023-02-21T05:32:50;18.70;91.00
18337;DHT22;9294;51.106;7.028;2023-02-21T05:35:17;18.80;90.90
18337;DHT22;9294;51.106;7.028;2023-02-21T05:37:44;18.80;90.70
18337;DHT22;9294;51.106;7.028;2023-02-21T05:40:12;18.90;90.70
18337;DHT22;9294;51.106;7.028;2023-02-21T05:42:40;19.00;90.60
18337;DHT22;9294;51.106;7.028;2023-02-21T05:45:08;19.10;90.50
18337;DHT22;9294;51.106;7.028;2023-02-21T05:47:35;19.20;90.50
18337;DHT22;9294;51.106;7.028;2023-02-21T05:50:02;19.20;90.30
18337;DHT22;9294;51.106;7.028;2023-02-21T05:52:29;19.30;90.30
18337;DHT22;9294;51.106;7.028;2023-02-21T05:54:56;19.30;90.20
18337;DHT22;9294;51.106;7.028;2023-02-21T05:57:24;19.30;90.20
18337;DHT22;9294;51.106;7.028;2023-02-21T05:59:50;19.40;90.10
18337;DHT22;9294;51.106;7.028;2023-02-21T06:02:17;19.50;90.10
18337;DHT22;9294;51.106;7.028;2023-02-21T06:04:44;19.50;90.00
18337;DHT22;9294;51.106;7.028;2023-02-21T06:07:10;19.60;90.00
18337;DHT22;9294;51.106;7.028;2023-02-21T06:09:37;19.60;89.90
18337;DHT22;9294;51.106;7.028;2023-02-21T06:12:04;19.60;89.60
18337;DHT22;9294;51.106;7.028;2023-02-21T06:14:32;19.60;89.60
18337;DHT22;9294;51.106;7.028;2023-02-21T06:16:59;19.60;89.50
18337;DHT22;9294;51.106;7.028;2023-02-21T06:19:27;19.70;89.60
18337;DHT22;9294;51.106;7.028;2023-02-21T06:21:53;19.70;89.40
18337;DHT22;9294;51.106;7.028;2023-02-21T06:24:20;19.70;90.10
18337;DHT22;9294;51.106;7.028;2023-02-21T06:26:47;19.70;90.40
18337;DHT22;9294;51.106;7.028;2023-02-21T06:29:14;19.70;90.80
18337;DHT22;9294;51.106;7.028;2023-02-21T06:31:42;19.70;91.10
18337;DHT22;9294;51.106;7.028;2023-02-21T06:34:11;19.70;91.30
18337;DHT22;9294;51.106;7.028;2023-02-21T06:36:38;19.80;91.40
18337;DHT22;9294;51.106;7.028;2023-02-21T06:39:04;19.80;91.30
18337;DHT22;9294;51.106;7.028;2023-02-21T06:41:32;19.80;91.70
18337;DHT22;9294;51.106;7.028;2023-02-21T06:43:59;19.80;92.00
18337;DHT22;9294;51.106;7.028;2023-02-21T06:46:27;19.80;92.10
18337;DHT22;9294;51.106;7.028;2023-02-21T06:48:56;19.80;92.00
18337;DHT22;9294;51.106;7.028;2023-02-21T06:51:23;19.80;91.80
18337;DHT22;9294;51.106;7.028;2023-02-21T06:53:54;19.80;91.70
18337;DHT22;9294;51.106;7.028;2023-02-21T06:56:21;19.90;91.50
18337;DHT22;9294;51.106;7.028;2023-02-21T06:58:48;19.90;91.30
18337;DHT22;9294;51.106;7.028;2023-02-21T07:01:15;19.90;91.20
18337;DHT22;9294;51.106;7.028;2023-02-21T07:03:41;19.90;91.50
18337;DHT22;9294;51.106;7.028;2023-02-21T07:06:11;19.90;91.20
18337;DHT22;9294;51.106;7.028;2023-02-21T07:08:37;19.90;91.40
18337;DHT22;9294;51.106;7.028;2023-02-21T07:11:04;19.90;91.40
18337;DHT22;9294;51.106;7.028;2023-02-21T07:13:31;19.90;91.50
18337;DHT22;9294;51.106;7.028;2023-02-21T07:15:58;19.80;91.60
18337;DHT22;9294;51.106;7.028;2023-02-21T07:18:25;19.90;91.20
18337;DHT22;9294;51.106;7.028;2023-02-21T07:20:51;19.90;91.10
18337;DHT22;9294;51.106;7.028;2023-02-21T07:23:19;19.90;91.00
18337;DHT22;9294;51.106;7.028;2023-02-21T07:25:46;19.90;91.00
18337;DHT22;9294;51.106;7.028;2023-02-21T07:28:13;19.90;90.90
18337;DHT22;9294;51.106;7.028;2023-02-21T07:30:40;19.90;90.90
18337;DHT22;9294;51.106;7.028;2023-02-21T07:33:06;19.90;90.90
18337;DHT22;9294;51.106;7.028;2023-02-21T07:35:33;19.90;90.90
18337;DHT22;9294;51.106;7.028;2023-02-21T07:38:00;19.90;91.00
18337;DHT22;9294;51.106;7.028;2023-02-21T07:40:28;19.90;91.10
18337;DHT22;9294;51.106;7.028;2023-02-21T07:42:54;20.00;91.20
18337;DHT22;9294;51.106;7.028;2023-02-21T07:45:21;20.00;91.00
18337;DHT22;9294;51.106;7.028;2023-02-21T07:47:48;20.00;91.00
18337;DHT22;9294;51.106;7.028;2023-02-21T07:50:16;20.00;91.00
18337;DHT22;9294;51.106;7.028;2023-02-21T07:52:44;20.00;90.20
18337;DHT22;9294;51.106;7.028;2023-02-21T07:55:11;19.90;90.70
18337;DHT22;9294;51.106;7.028;2023-02-21T07:57:39;20.00;90.80
18337;DHT22;9294;51.106;7.028;2023-02-21T08:00:07;19.90;90.90
18337;DHT22;9294;51.106;7.028;2023-02-21T08:02:34;20.00;91.10
18337;DHT22;9294;51.106;7.028;2023-02-21T08:05:01;19.90;91.10
18337;DHT22;9294;51.106;7.028;2023-02-21T08:07:28;19.90;91.00
18337;DHT22;9294;51.106;7.028;2023-02-21T08:09:55;19.90;91.00
18337;DHT22;9294;51.106;7.028;2023-02-21T08:12:22;19.90;91.20
18337;DHT22;9294;51.106;7.028;2023-02-21T08:14:50;19.90;91.40
18337;DHT22;9294;51.106;7.028;2023-02-21T08:17:16;19.90;91.40
18337;DHT22;9294;51.106;7.028;2023-02-21T08:19:43;19.90;91.40
18337;DHT22;9294;51.106;7.028;2023-02-21T08:22:10;19.90;91.50
18337;DHT22;9294;51.106;7.028;2023-02-21T08:24:37;19.90;91.30
18337;DHT22;9294;51.106;7.028;2023-02-21T08:27:03;19.90;91.10
18337;DHT22;9294;51.106;7.028;2023-02-21T08:29:30;19.90;91.20
18337;DHT22;9294;51.106;7.028;2023-02-21T08:31:58;19.90;91.10
18337;DHT22;9294;51.106;7.028;2023-02-21T08:34:25;19.90;90.80
18337;DHT22;9294;51.106;7.028;2023-02-21T08:36:54;19.90;90.30
18337;DHT22;9294;51.106;7.028;2023-02-21T08:39:21;19.90;90.60
18337;DHT22;9294;51.106;7.028;2023-02-21T08:41:48;19.90;90.70
18337;DHT22;9294;51.106;7.028;2023-02-21T08:44:17;19.90;90.80
18337;DHT22;9294;51.106;7.028;2023-02-21T08:46:46;19.80;90.90
18337;DHT22;9294;51.106;7.028;2023-02-21T08:49:14;19.80;90.80
18337;DHT22;9294;51.106;7.028;2023-02-21T08:51:42;19.80;90.90
18337;DHT22;9294;51.106;7.028;2023-02-21T08:54:08;19.80;90.90
18337;DHT22;9294;51.106;7.028;2023-02-21T08:56:35;19.80;90.80
18337;DHT22;9294;51.106;7.028;2023-02-21T08:59:02;19.80;90.90
18337;DHT22;9294;51.106;7.028;2023-02-21T09:01:31;19.80;90.80
18337;DHT22;9294;51.106;7.028;2023-02-21T09:03:59;19.80;90.80
18337;DHT22;9294;51.106;7.028;2023-02-21T09:06:27;19.90;90.80
18337;DHT22;9294;51.106;7.028;2023-02-21T09:08:54;19.80;90.80
18337;DHT22;9294;51.106;7.028;2023-02-21T09:11:20;19.80;90.90
18337;DHT22;9294;51.106;7.028;2023-02-21T09:13:47;19.80;91.00
18337;DHT22;9294;51.106;7.028;2023-02-21T09:16:14;19.70;91.00
18337;DHT22;9294;51.106;7.028;2023-02-21T09:18:41;19.80;91.20
18337;DHT22;9294;51.106;7.028;2023-02-21T09:21:07;19.70;91.20
18337;DHT22;9294;51.106;7.028;2023-02-21T09:23:35;19.70;91.30
18337;DHT22;9294;51.106;7.028;2023-02-21T09:26:02;19.70;91.40
18337;DHT22;9294;51.106;7.028;2023-02-21T09:28:29;19.60;91.30
18337;DHT22;9294;51.106;7.028;2023-02-21T09:30:56;19.70;91.40
18337;DHT22;9294;51.106;7.028;2023-02-21T09:33:22;19.70;91.30
18337;DHT22;9294;51.106;7.028;2023-02-21T09:35:49;19.70;91.40
18337;DHT22;9294;51.106;7.028;2023-02-21T09:38:16;19.70;91.70
18337;DHT22;9294;51.106;7.028;2023-02-21T09:40:47;19.70;91.80
18337;DHT22;9294;51.106;7.028;2023-02-21T09:43:16;19.70;91.80
18337;DHT22;9294;51.106;7.028;2023-02-21T09:45:44;19.70;91.80
18337;DHT22;9294;51.106;7.028;2023-02-21T09:48:13;19.70;91.90
18337;DHT22;9294;51.106;7.028;2023-02-21T09:50:44;19.40;91.60
18337;DHT22;9294;51.106;7.028;2023-02-21T09:53:15;19.80;91.70
18337;DHT22;9294;51.106;7.028;2023-02-21T09:55:47;19.80;91.70
18337;DHT22;9294;51.106;7.028;2023-02-21T09:58:17;19.90;91.80
18337;DHT22;9294;51.106;7.028;2023-02-21T10:00:45;19.90;91.80
18337;DHT22;9294;51.106;7.028;2023-02-21T10:03:33;19.90;91.90
18337;DHT22;9294;51.106;7.028;2023-02-21T10:06:07;19.90;91.50
18337;DHT22;9294;51.106;7.028;2023-02-21T10:08:42;20.00;91.60
18337;DHT22;9294;51.106;7.028;2023-02-21T10:11:24;20.00;91.60
18337;DHT22;9294;51.106;7.028;2023-02-21T10:13:57;20.00;91.50
18337;DHT22;9294;51.106;7.028;2023-02-21T10:16:28;20.00;91.50
18337;DHT22;9294;51.106;7.028;2023-02-21T10:19:05;20.00;91.50
18337;DHT22;9294;51.106;7.028;2023-02-21T10:21:37;20.00;91.40
18337;DHT22;9294;51.106;7.028;2023-02-21T10:24:11;20.00;91.40
18337;DHT22;9294;51.106;7.028;2023-02-21T10:26:45;20.00;91.40
18337;DHT22;9294;51.106;7.028;2023-02-21T10:29:20;20.00;91.40
18337;DHT22;9294;51.106;7.028;2023-02-21T10:31:50;20.00;91.40
18337;DHT22;9294;51.106;7.028;2023-02-21T10:34:23;20.00;91.50
18337;DHT22;9294;51.106;7.028;2023-02-21T10:36:51;20.10;91.50
18337;DHT22;9294;51.106;7.028;2023-02-21T10:39:20;20.10;91.50
18337;DHT22;9294;51.106;7.028;2023-02-21T10:41:49;20.10;91.50
18337;DHT22;9294;51.106;7.028;2023-02-21T10:44:19;20.10;91.50
18337;DHT22;9294;51.106;7.028;2023-02-21T10:46:53;20.20;91.50
18337;DHT22;9294;51.106;7.028;2023-02-21T10:49:22;20.20;91.70
18337;DHT22;9294;51.106;7.028;2023-02-21T10:52:09;20.20;91.60
18337;DHT22;9294;51.106;7.028;2023-02-21T10:54:36;20.20;91.50
18337;DHT22;9294;51.106;7.028;2023-02-21T10:57:06;20.20;91.70
18337;DHT22;9294;51.106;7.028;2023-02-21T10:59:36;20.20;91.50
18337;DHT22;9294;51.106;7.028;2023-02-21T11:02:24;20.20;91.70
18337;DHT22;9294;51.106;7.028;2023-02-21T11:04:53;20.20;91.50
18337;DHT22;9294;51.106;7.028;2023-02-21T11:07:21;20.20;91.50
18337;DHT22;9294;51.106;7.028;2023-02-21T11:09:49;20.10;91.50
18337;DHT22;9294;51.106;7.028;2023-02-21T11:12:23;20.20;91.50
18337;DHT22;9294;51.106;7.028;2023-02-21T11:15:15;20.20;91.40
18337;DHT22;9294;51.106;7.028;2023-02-21T11:17:43;20.20;91.40
18337;DHT22;9294;51.106;7.028;2023-02-21T11:20:17;20.10;91.60
18337;DHT22;9294;51.106;7.028;2023-02-21T11:22:46;20.10;91.40
18337;DHT22;9294;51.106;7.028;2023-02-21T11:25:20;20.10;91.50
18337;DHT22;9294;51.106;7.028;2023-02-21T11:28:01;20.10;91.60
18337;DHT22;9294;51.106;7.028;2023-02-21T11:30:29;20.10;91.60
18337;DHT22;9294;51.106;7.028;2023-02-21T11:32:57;20.10;91.80
18337;DHT22;9294;51.106;7.028;2023-02-21T11:35:27;20.00;91.70
18337;DHT22;9294;51.106;7.028;2023-02-21T11:37:56;20.00;91.80
18337;DHT22;9294;51.106;7.028;2023-02-21T11:40:27;20.00;91.80
18337;DHT22;9294;51.106;7.028;2023-02-21T11:43:20;20.00;91.80
18337;DHT22;9294;51.106;7.028;2023-02-21T11:46:09;20.00;91.60
18337;DHT22;9294;51.106;7.028;2023-02-21T11:48:45;20.00;91.80
18337;DHT22;9294;51.106;7.028;2023-02-21T11:51:29;19.90;91.70
18337;DHT22;9294;51.106;7.028;2023-02-21T11:53:57;20.00;91.70
18337;DHT22;9294;51.106;7.028;2023-02-21T11:56:31;20.00;91.80
18337;DHT22;9294;51.106;7.028;2023-02-21T11:59:09;20.00;91.80
18337;DHT22;9294;51.106;7.028;2023-02-21T12:01:42;19.90;91.80
18337;DHT22;9294;51.106;7.028;2023-02-21T12:04:28;19.90;91.90
18337;DHT22;9294;51.106;7.028;2023-02-21T12:07:01;19.90;91.80
18337;DHT22;9294;51.106;7.028;2023-02-21T12:09:34;19.90;91.90
18337;DHT22;9294;51.106;7.028;2023-02-21T12:12:17;19.90;91.90
18337;DHT22;9294;51.106;7.028;2023-02-21T12:15:07;19.90;91.80
18337;DHT22;9294;51.106;7.028;2023-02-21T12:17:51;19.90;91.70
18337;DHT22;9294;51.106;7.028;2023-02-21T12:20:30;19.90;91.70
18337;DHT22;9294;51.106;7.028;2023-02-21T12:23:10;19.90;91.80
18337;DHT22;9294;51.106;7.028;2023-02-21T12:25:52;19.90;91.70
18337;DHT22;9294;51.106;7.028;2023-02-21T12:28:28;19.90;91.70
18337;DHT22;9294;51.106;7.028;2023-02-21T12:31:11;19.90;91.80
18337;DHT22;9294;51.106;7.028;2023-02-21T12:33:48;19.80;91.80
18337;DHT22;9294;51.106;7.028;2023-02-21T12:36:34;19.80;92.00
18337;DHT22;9294;51.106;7.028;2023-02-21T12:39:14;19.80;92.10
18337;DHT22;9294;51.106;7.028;2023-02-21T12:41:55;19.80;92.00
18337;DHT22;9294;51.106;7.028;2023-02-21T12:44:29;19.80;92.00
18337;DHT22;9294;51.106;7.028;2023-02-21T12:47:05;19.90;92.20
18337;DHT22;9294;51.106;7.028;2023-02-21T12:49:42;19.90;92.20
18337;DHT22;9294;51.106;7.028;2023-02-21T12:52:14;19.90;92.10
18337;DHT22;9294;51.106;7.028;2023-02-21T12:54:45;19.90;92.00
18337;DHT22;9294;51.106;7.028;2023-02-21T12:57:15;19.80;91.90
18337;DHT22;9294;51.106;7.028;2023-02-21T12:59:53;19.90;91.90
18337;DHT22;9294;51.106;7.028;2023-02-21T13:02:29;19.80;91.90
18337;DHT22;9294;51.106;7.028;2023-02-21T13:05:05;19.80;91.80
18337;DHT22;9294;51.106;7.028;2023-02-21T13:07:39;19.80;91.70
18337;DHT22;9294;51.106;7.028;2023-02-21T13:10:15;19.80;91.70
18337;DHT22;9294;51.106;7.028;2023-02-21T13:12:48;19.80;91.60
18337;DHT22;9294;51.106;7.028;2023-02-21T13:15:19;19.80;91.60
18337;DHT22;9294;51.106;7.028;2023-02-21T13:17:56;19.80;91.50
18337;DHT22;9294;51.106;7.028;2023-02-21T13:20:26;19.80;91.50
18337;DHT22;9294;51.106;7.028;2023-02-21T13:26:32;19.80;91.40
18337;DHT22;9294;51.106;7.028;2023-02-21T13:29:01;19.80;91.30
18337;DHT22;9294;51.106;7.028;2023-02-21T13:31:33;19.80;91.50
18337;DHT22;9294;51.106;7.028;2023-02-21T13:34:06;19.80;91.60
18337;DHT22;9294;51.106;7.028;2023-02-21T13:36:44;19.80;91.70
18337;DHT22;9294;51.106;7.028;2023-02-21T13:39:13;19.80;91.60
18337;DHT22;9294;51.106;7.028;2023-02-21T13:41:44;19.80;91.70
18337;DHT22;9294;51.106;7.028;2023-02-21T13:44:17;19.80;91.80
18337;DHT22;9294;51.106;7.028;2023-02-21T13:47:05;19.80;91.70
18337;DHT22;9294;51.106;7.028;2023-02-21T13:50:00;19.80;91.50
18337;DHT22;9294;51.106;7.028;2023-02-21T13:53:02;19.80;91.50
18337;DHT22;9294;51.106;7.028;2023-02-21T13:55:30;19.90;91.50
18337;DHT22;9294;51.106;7.028;2023-02-21T14:01:44;19.80;91.50
18337;DHT22;9294;51.106;7.028;2023-02-21T14:04:48;19.80;91.50
18337;DHT22;9294;51.106;7.028;2023-02-21T14:07:16;19.80;91.50
18337;DHT22;9294;51.106;7.028;2023-02-21T14:09:45;19.80;91.50
18337;DHT22;9294;51.106;7.028;2023-02-21T14:12:12;19.80;91.40
18337;DHT22;9294;51.106;7.028;2023-02-21T14:14:40;19.80;91.60
18337;DHT22;9294;51.106;7.028;2023-02-21T14:17:10;19.80;91.70
18337;DHT22;9294;51.106;7.028;2023-02-21T14:19:41;19.80;91.80
18337;DHT22;9294;51.106;7.028;2023-02-21T14:22:14;19.80;91.90
18337;DHT22;9294;51.106;7.028;2023-02-21T14:24:43;19.80;92.00
18337;DHT22;9294;51.106;7.028;2023-02-21T14:27:33;19.80;92.00
18337;DHT22;9294;51.106;7.028;2023-02-21T14:30:28;19.80;91.80
18337;DHT22;9294;51.106;7.028;2023-02-21T14:33:20;19.80;91.90
18337;DHT22;9294;51.106;7.028;2023-02-21T14:35:54;19.80;92.10
18337;DHT22;9294;51.106;7.028;2023-02-21T14:38:23;19.90;92.20
18337;DHT22;9294;51.106;7.028;2023-02-21T14:41:00;19.90;92.30
18337;DHT22;9294;51.106;7.028;2023-02-21T14:43:51;19.90;92.20
18337;DHT22;9294;51.106;7.028;2023-02-21T14:46:37;19.90;92.10
18337;DHT22;9294;51.106;7.028;2023-02-21T14:49:41;19.90;92.10
18337;DHT22;9294;51.106;7.028;2023-02-21T14:52:31;19.90;92.10
18337;DHT22;9294;51.106;7.028;2023-02-21T14:55:25;19.90;92.20
18337;DHT22;9294;51.106;7.028;2023-02-21T14:58:10;20.00;92.20
18337;DHT22;9294;51.106;7.028;2023-02-21T15:00:50;20.00;92.20
18337;DHT22;9294;51.106;7.028;2023-02-21T15:03:28;20.00;92.10
18337;DHT22;9294;51.106;7.028;2023-02-21T15:06:01;20.00;92.10
18337;DHT22;9294;51.106;7.028;2023-02-21T15:08:39;20.00;92.00
18337;DHT22;9294;51.106;7.028;2023-02-21T15:11:18;20.00;91.90
18337;DHT22;9294;51.106;7.028;2023-02-21T15:13:47;20.00;91.90
18337;DHT22;9294;51.106;7.028;2023-02-21T15:16:15;20.00;92.30
18337;DHT22;9294;51.106;7.028;2023-02-21T15:18:56;20.00;92.60
18337;DHT22;9294;51.106;7.028;2023-02-21T15:21:24;19.90;92.70
18337;DHT22;9294;51.106;7.028;2023-02-21T15:23:59;19.90;93.00
18337;DHT22;9294;51.106;7.028;2023-02-21T15:26:28;19.90;93.00
18337;DHT22;9294;51.106;7.028;2023-02-21T15:29:04;19.90;93.20
18337;DHT22;9294;51.106;7.028;2023-02-21T15:31:33;19.90;93.10
18337;DHT22;9294;51.106;7.028;2023-02-21T15:34:00;19.90;92.90
18337;DHT22;9294;51.106;7.028;2023-02-21T15:36:28;20.00;92.60
18337;DHT22;9294;51.106;7.028;2023-02-21T15:39:02;20.00;92.60
18337;DHT22;9294;51.106;7.028;2023-02-21T15:41:31;20.00;92.40
18337;DHT22;9294;51.106;7.028;2023-02-21T15:44:04;20.00;92.30
18337;DHT22;9294;51.106;7.028;2023-02-21T15:46:43;20.00;92.30
18337;DHT22;9294;51.106;7.028;2023-02-21T15:49:18;20.00;92.20
18337;DHT22;9294;51.106;7.028;2023-02-21T15:51:47;20.00;92.20
18337;DHT22;9294;51.106;7.028;2023-02-21T15:54:26;20.00;92.10
18337;DHT22;9294;51.106;7.028;2023-02-21T15:57:02;20.00;92.00
18337;DHT22;9294;51.106;7.028;2023-02-21T15:59:30;19.90;92.00
18337;DHT22;9294;51.106;7.028;2023-02-21T16:02:19;19.90;91.80
18337;DHT22;9294;51.106;7.028;2023-02-21T16:04:48;19.90;91.80
18337;DHT22;9294;51.106;7.028;2023-02-21T16:07:19;19.90;92.00
18337;DHT22;9294;51.106;7.028;2023-02-21T16:09:48;19.90;92.00
18337;DHT22;9294;51.106;7.028;2023-02-21T16:12:29;19.90;92.40
18337;DHT22;9294;51.106;7.028;2023-02-21T16:14:58;19.90;92.40
18337;DHT22;9294;51.106;7.028;2023-02-21T16:17:29;19.90;92.40
18337;DHT22;9294;51.106;7.028;2023-02-21T16:19:58;19.90;92.30
18337;DHT22;9294;51.106;7.028;2023-02-21T16:22:33;19.80;92.30
18337;DHT22;9294;51.106;7.028;2023-02-21T16:25:13;19.80;92.20
18337;DHT22;9294;51.106;7.028;2023-02-21T16:27:41;19.80;92.40
18337;DHT22;9294;51.106;7.028;2023-02-21T16:30:12;19.90;92.60
18337;DHT22;9294;51.106;7.028;2023-02-21T16:32:41;19.90;92.60